sensor_id;sensor_type;location;lat;lon;timestamp;P1;durP1;ratioP1;P2;durP2;ratioP2
27424;SDS011;15244;49.088;11.886;2022-07-29T00:04:42;2.40;;;1.17;;
27424;SDS011;15244;49.088;11.886;2022-07-29T00:09:44;1.05;;;1.02;;
27424;SDS011;15244;49.088;11.886;2022-07-29T00:14:53;1.77;;;1.20;;
27424;SDS011;15244;49.088;11.886;2022-07-29T00:19:56;2.08;;;1.40;;
27424;SDS011;15244;49.088;11.886;2022-07-29T00:24:57;1.70;;;1.30;;
27424;SDS011;15244;49.088;11.886;2022-07-29T00:29:59;1.90;;;1.35;;
27424;SDS011;15244;49.088;11.886;2022-07-29T00:35:01;1.83;;;1.10;;
27424;SDS011;15244;49.088;11.886;2022-07-29T00:40:21;1.58;;;1.35;;
27424;SDS011;15244;49.088;11.886;2022-07-29T00:45:24;1.67;;;1.10;;
27424;SDS011;15244;49.088;11.886;2022-07-29T00:50:26;1.48;;;1.30;;
27424;SDS011;15244;49.088;11.886;2022-07-29T00:55:28;10.65;;;1.40;;
27424;SDS011;15244;49.088;11.886;2022-07-29T01:00:30;1.45;;;1.35;;
27424;SDS011;15244;49.088;11.886;2022-07-29T01:05:32;1.20;;;1.20;;
27424;SDS011;15244;49.088;11.886;2022-07-29T01:10:51;1.40;;;1.30;;
27424;SDS011;15244;49.088;11.886;2022-07-29T01:15:58;1.50;;;1.40;;
27424;SDS011;15244;49.088;11.886;2022-07-29T01:31:25;1.30;;;1.20;;
27424;SDS011;15244;49.088;11.886;2022-07-29T01:36:38;3.33;;;1.40;;
27424;SDS011;15244;49.088;11.886;2022-07-29T01:41:55;2.80;;;1.60;;
27424;SDS011;15244;49.088;11.886;2022-07-29T01:47:05;6.07;;;1.58;;
27424;SDS011;15244;49.088;11.886;2022-07-29T01:52:19;1.88;;;1.40;;
27424;SDS011;15244;49.088;11.886;2022-07-29T01:57:26;1.70;;;1.27;;
27424;SDS011;15244;49.088;11.886;2022-07-29T02:02:30;2.90;;;1.52;;
27424;SDS011;15244;49.088;11.886;2022-07-29T02:07:36;1.48;;;1.35;;
27424;SDS011;15244;49.088;11.886;2022-07-29T02:12:39;1.45;;;1.35;;
27424;SDS011;15244;49.088;11.886;2022-07-29T02:17:56;1.42;;;1.33;;
27424;SDS011;15244;49.088;11.886;2022-07-29T02:23:02;1.70;;;1.55;;
27424;SDS011;15244;49.088;11.886;2022-07-29T02:28:07;2.03;;;1.20;;
27424;SDS011;15244;49.088;11.886;2022-07-29T02:33:09;3.00;;;1.35;;
27424;SDS011;15244;49.088;11.886;2022-07-29T02:38:15;1.85;;;1.50;;
27424;SDS011;15244;49.088;11.886;2022-07-29T02:43:36;1.33;;;1.23;;
27424;SDS011;15244;49.088;11.886;2022-07-29T02:48:43;3.13;;;1.50;;
27424;SDS011;15244;49.088;11.886;2022-07-29T02:53:53;8.18;;;1.75;;
27424;SDS011;15244;49.088;11.886;2022-07-29T02:58:58;3.58;;;1.52;;
27424;SDS011;15244;49.088;11.886;2022-07-29T03:04:04;4.53;;;1.60;;
27424;SDS011;15244;49.088;11.886;2022-07-29T03:09:07;2.08;;;1.60;;
27424;SDS011;15244;49.088;11.886;2022-07-29T03:14:13;2.22;;;1.70;;
27424;SDS011;15244;49.088;11.886;2022-07-29T03:19:18;1.92;;;1.73;;
27424;SDS011;15244;49.088;11.886;2022-07-29T03:24:25;2.70;;;1.55;;
27424;SDS011;15244;49.088;11.886;2022-07-29T03:29:34;4.10;;;1.50;;
27424;SDS011;15244;49.088;11.886;2022-07-29T03:34:36;2.67;;;1.95;;
27424;SDS011;15244;49.088;11.886;2022-07-29T03:39:40;2.03;;;1.80;;
27424;SDS011;15244;49.088;11.886;2022-07-29T03:44:44;1.92;;;1.70;;
27424;SDS011;15244;49.088;11.886;2022-07-29T03:49:49;3.05;;;1.77;;
27424;SDS011;15244;49.088;11.886;2022-07-29T03:54:53;1.60;;;1.50;;
27424;SDS011;15244;49.088;11.886;2022-07-29T03:59:55;1.50;;;1.40;;
27424;SDS011;15244;49.088;11.886;2022-07-29T04:04:58;2.10;;;1.88;;
27424;SDS011;15244;49.088;11.886;2022-07-29T04:10:00;2.65;;;1.73;;
27424;SDS011;15244;49.088;11.886;2022-07-29T04:15:05;1.70;;;1.60;;
27424;SDS011;15244;49.088;11.886;2022-07-29T04:20:07;1.88;;;1.45;;
27424;SDS011;15244;49.088;11.886;2022-07-29T04:25:09;2.55;;;1.48;;
27424;SDS011;15244;49.088;11.886;2022-07-29T04:30:11;2.88;;;1.98;;
27424;SDS011;15244;49.088;11.886;2022-07-29T04:35:13;3.92;;;1.73;;
27424;SDS011;15244;49.088;11.886;2022-07-29T04:40:15;1.92;;;1.83;;
27424;SDS011;15244;49.088;11.886;2022-07-29T04:45:17;3.28;;;1.70;;
27424;SDS011;15244;49.088;11.886;2022-07-29T04:50:23;2.35;;;2.15;;
27424;SDS011;15244;49.088;11.886;2022-07-29T04:55:25;3.85;;;1.95;;
27424;SDS011;15244;49.088;11.886;2022-07-29T05:00:26;2.95;;;1.92;;
27424;SDS011;15244;49.088;11.886;2022-07-29T05:05:33;1.83;;;1.73;;
27424;SDS011;15244;49.088;11.886;2022-07-29T05:10:35;3.95;;;1.75;;
27424;SDS011;15244;49.088;11.886;2022-07-29T05:15:39;2.30;;;1.70;;
27424;SDS011;15244;49.088;11.886;2022-07-29T05:20:41;3.47;;;1.90;;
27424;SDS011;15244;49.088;11.886;2022-07-29T05:25:43;1.75;;;1.65;;
27424;SDS011;15244;49.088;11.886;2022-07-29T05:30:45;3.92;;;1.80;;
27424;SDS011;15244;49.088;11.886;2022-07-29T05:35:47;4.00;;;1.55;;
27424;SDS011;15244;49.088;11.886;2022-07-29T05:40:48;6.07;;;1.75;;
27424;SDS011;15244;49.088;11.886;2022-07-29T05:45:50;1.60;;;1.50;;
27424;SDS011;15244;49.088;11.886;2022-07-29T05:50:52;3.45;;;2.25;;
27424;SDS011;15244;49.088;11.886;2022-07-29T05:55:54;2.13;;;1.50;;
27424;SDS011;15244;49.088;11.886;2022-07-29T06:00:56;1.77;;;1.65;;
27424;SDS011;15244;49.088;11.886;2022-07-29T06:06:02;2.72;;;1.80;;
27424;SDS011;15244;49.088;11.886;2022-07-29T06:11:04;3.85;;;1.85;;
27424;SDS011;15244;49.088;11.886;2022-07-29T06:16:06;2.97;;;2.20;;
27424;SDS011;15244;49.088;11.886;2022-07-29T06:21:08;4.30;;;2.60;;
27424;SDS011;15244;49.088;11.886;2022-07-29T06:26:11;2.50;;;2.20;;
27424;SDS011;15244;49.088;11.886;2022-07-29T06:31:12;5.07;;;2.25;;
27424;SDS011;15244;49.088;11.886;2022-07-29T06:36:14;3.17;;;2.00;;
27424;SDS011;15244;49.088;11.886;2022-07-29T06:41:17;2.78;;;1.73;;
27424;SDS011;15244;49.088;11.886;2022-07-29T06:46:20;1.90;;;1.50;;
27424;SDS011;15244;49.088;11.886;2022-07-29T06:51:22;2.97;;;1.60;;
27424;SDS011;15244;49.088;11.886;2022-07-29T06:56:24;2.20;;;1.90;;
27424;SDS011;15244;49.088;11.886;2022-07-29T07:01:26;2.30;;;1.83;;
27424;SDS011;15244;49.088;11.886;2022-07-29T07:06:28;2.65;;;1.85;;
27424;SDS011;15244;49.088;11.886;2022-07-29T07:11:29;4.22;;;1.92;;
27424;SDS011;15244;49.088;11.886;2022-07-29T07:16:31;2.13;;;1.70;;
27424;SDS011;15244;49.088;11.886;2022-07-29T07:21:37;2.20;;;2.10;;
27424;SDS011;15244;49.088;11.886;2022-07-29T07:26:41;4.25;;;1.70;;
27424;SDS011;15244;49.088;11.886;2022-07-29T07:31:43;3.28;;;1.92;;
27424;SDS011;15244;49.088;11.886;2022-07-29T07:36:45;2.10;;;2.00;;
27424;SDS011;15244;49.088;11.886;2022-07-29T07:41:46;2.40;;;1.50;;
27424;SDS011;15244;49.088;11.886;2022-07-29T07:46:48;2.47;;;1.88;;
27424;SDS011;15244;49.088;11.886;2022-07-29T07:51:50;4.07;;;1.83;;
27424;SDS011;15244;49.088;11.886;2022-07-29T07:56:53;2.03;;;1.92;;
27424;SDS011;15244;49.088;11.886;2022-07-29T08:01:55;3.30;;;2.17;;
27424;SDS011;15244;49.088;11.886;2022-07-29T08:06:58;2.78;;;2.17;;
27424;SDS011;15244;49.088;11.886;2022-07-29T08:12:00;2.40;;;2.20;;
27424;SDS011;15244;49.088;11.886;2022-07-29T08:17:05;1.92;;;1.83;;
27424;SDS011;15244;49.088;11.886;2022-07-29T08:22:07;2.40;;;2.17;;
27424;SDS011;15244;49.088;11.886;2022-07-29T08:27:09;2.17;;;1.98;;
27424;SDS011;15244;49.088;11.886;2022-07-29T08:32:31;2.88;;;2.08;;
27424;SDS011;15244;49.088;11.886;2022-07-29T08:37:53;2.97;;;2.28;;
27424;SDS011;15244;49.088;11.886;2022-07-29T08:42:55;3.63;;;2.55;;
27424;SDS011;15244;49.088;11.886;2022-07-29T08:47:56;2.75;;;2.25;;
27424;SDS011;15244;49.088;11.886;2022-07-29T08:52:59;2.83;;;2.25;;
27424;SDS011;15244;49.088;11.886;2022-07-29T08:58:00;2.00;;;1.90;;
27424;SDS011;15244;49.088;11.886;2022-07-29T09:03:03;4.55;;;2.30;;
27424;SDS011;15244;49.088;11.886;2022-07-29T09:08:06;2.10;;;1.90;;
27424;SDS011;15244;49.088;11.886;2022-07-29T09:13:08;2.78;;;2.33;;
27424;SDS011;15244;49.088;11.886;2022-07-29T09:18:10;2.22;;;2.10;;
27424;SDS011;15244;49.088;11.886;2022-07-29T09:23:31;2.70;;;2.50;;
27424;SDS011;15244;49.088;11.886;2022-07-29T09:28:32;2.30;;;2.20;;
27424;SDS011;15244;49.088;11.886;2022-07-29T09:33:34;2.75;;;2.30;;
27424;SDS011;15244;49.088;11.886;2022-07-29T09:38:36;2.17;;;1.98;;
27424;SDS011;15244;49.088;11.886;2022-07-29T09:43:38;2.50;;;2.40;;
27424;SDS011;15244;49.088;11.886;2022-07-29T09:48:41;3.15;;;1.92;;
27424;SDS011;15244;49.088;11.886;2022-07-29T09:53:43;2.58;;;2.47;;
27424;SDS011;15244;49.088;11.886;2022-07-29T09:58:45;3.38;;;2.30;;
27424;SDS011;15244;49.088;11.886;2022-07-29T10:03:50;3.08;;;2.80;;
27424;SDS011;15244;49.088;11.886;2022-07-29T10:08:53;2.95;;;2.30;;
27424;SDS011;15244;49.088;11.886;2022-07-29T10:14:07;2.97;;;2.00;;
27424;SDS011;15244;49.088;11.886;2022-07-29T10:19:09;1.83;;;1.73;;
27424;SDS011;15244;49.088;11.886;2022-07-29T10:24:11;2.20;;;2.00;;
27424;SDS011;15244;49.088;11.886;2022-07-29T10:29:15;2.05;;;1.88;;
27424;SDS011;15244;49.088;11.886;2022-07-29T10:39:45;1.50;;;1.38;;
27424;SDS011;15244;49.088;11.886;2022-07-29T10:45:30;1.70;;;1.65;;
27424;SDS011;15244;49.088;11.886;2022-07-29T10:56:04;1.63;;;1.52;;
27424;SDS011;15244;49.088;11.886;2022-07-29T11:01:28;1.90;;;1.80;;
27424;SDS011;15244;49.088;11.886;2022-07-29T11:12:49;7.03;;;1.50;;
27424;SDS011;15244;49.088;11.886;2022-07-29T11:23:01;1.73;;;1.63;;
27424;SDS011;15244;49.088;11.886;2022-07-29T11:28:19;1.42;;;1.20;;
27424;SDS011;15244;49.088;11.886;2022-07-29T11:33:34;0.80;;;0.80;;
27424;SDS011;15244;49.088;11.886;2022-07-29T11:49:59;1.25;;;0.98;;
27424;SDS011;15244;49.088;11.886;2022-07-29T11:55:05;0.90;;;0.90;;
27424;SDS011;15244;49.088;11.886;2022-07-29T12:00:10;1.95;;;1.27;;
27424;SDS011;15244;49.088;11.886;2022-07-29T12:05:33;1.20;;;1.15;;
27424;SDS011;15244;49.088;11.886;2022-07-29T12:10:49;0.90;;;0.90;;
27424;SDS011;15244;49.088;11.886;2022-07-29T12:15:53;1.10;;;1.10;;
27424;SDS011;15244;49.088;11.886;2022-07-29T12:21:00;0.80;;;0.80;;
27424;SDS011;15244;49.088;11.886;2022-07-29T12:26:06;2.10;;;0.70;;
27424;SDS011;15244;49.088;11.886;2022-07-29T12:31:29;0.90;;;0.90;;
27424;SDS011;15244;49.088;11.886;2022-07-29T12:36:45;1.23;;;1.02;;
27424;SDS011;15244;49.088;11.886;2022-07-29T12:41:50;0.73;;;0.73;;
27424;SDS011;15244;49.088;11.886;2022-07-29T12:47:04;0.90;;;0.90;;
27424;SDS011;15244;49.088;11.886;2022-07-29T12:57:26;1.27;;;1.07;;
27424;SDS011;15244;49.088;11.886;2022-07-29T13:02:30;1.10;;;1.10;;
27424;SDS011;15244;49.088;11.886;2022-07-29T13:07:32;1.20;;;1.20;;
27424;SDS011;15244;49.088;11.886;2022-07-29T13:13:07;2.90;;;1.10;;
27424;SDS011;15244;49.088;11.886;2022-07-29T13:18:27;3.88;;;1.48;;
27424;SDS011;15244;49.088;11.886;2022-07-29T13:23:30;1.65;;;1.55;;
27424;SDS011;15244;49.088;11.886;2022-07-29T13:28:38;2.63;;;1.27;;
27424;SDS011;15244;49.088;11.886;2022-07-29T13:33:44;1.52;;;1.50;;
27424;SDS011;15244;49.088;11.886;2022-07-29T13:38:46;1.35;;;1.35;;
27424;SDS011;15244;49.088;11.886;2022-07-29T13:43:47;1.60;;;1.52;;
27424;SDS011;15244;49.088;11.886;2022-07-29T13:48:50;1.10;;;1.10;;
27424;SDS011;15244;49.088;11.886;2022-07-29T13:53:52;1.40;;;1.30;;
27424;SDS011;15244;49.088;11.886;2022-07-29T13:58:58;1.20;;;1.20;;
27424;SDS011;15244;49.088;11.886;2022-07-29T14:04:09;1.10;;;1.10;;
27424;SDS011;15244;49.088;11.886;2022-07-29T14:09:15;1.83;;;1.00;;
27424;SDS011;15244;49.088;11.886;2022-07-29T14:14:18;0.90;;;0.85;;
27424;SDS011;15244;49.088;11.886;2022-07-29T14:19:21;1.48;;;1.38;;
27424;SDS011;15244;49.088;11.886;2022-07-29T14:24:24;3.80;;;1.33;;
27424;SDS011;15244;49.088;11.886;2022-07-29T14:29:26;1.27;;;1.17;;
27424;SDS011;15244;49.088;11.886;2022-07-29T14:34:38;3.80;;;1.30;;
27424;SDS011;15244;49.088;11.886;2022-07-29T14:39:40;1.98;;;1.10;;
27424;SDS011;15244;49.088;11.886;2022-07-29T14:44:43;2.85;;;1.27;;
27424;SDS011;15244;49.088;11.886;2022-07-29T14:49:47;2.63;;;1.10;;
27424;SDS011;15244;49.088;11.886;2022-07-29T14:54:51;0.85;;;0.85;;
27424;SDS011;15244;49.088;11.886;2022-07-29T14:59:54;1.00;;;1.00;;
27424;SDS011;15244;49.088;11.886;2022-07-29T15:04:56;1.15;;;1.00;;
27424;SDS011;15244;49.088;11.886;2022-07-29T15:09:57;1.40;;;1.30;;
27424;SDS011;15244;49.088;11.886;2022-07-29T15:15:00;0.90;;;0.90;;
27424;SDS011;15244;49.088;11.886;2022-07-29T15:20:03;1.05;;;0.90;;
27424;SDS011;15244;49.088;11.886;2022-07-29T15:25:06;1.38;;;1.13;;
27424;SDS011;15244;49.088;11.886;2022-07-29T15:30:08;1.20;;;1.10;;
27424;SDS011;15244;49.088;11.886;2022-07-29T15:35:28;2.38;;;0.93;;
27424;SDS011;15244;49.088;11.886;2022-07-29T15:40:29;1.20;;;1.10;;
27424;SDS011;15244;49.088;11.886;2022-07-29T15:45:38;1.02;;;1.02;;
27424;SDS011;15244;49.088;11.886;2022-07-29T15:50:41;1.38;;;1.27;;
27424;SDS011;15244;49.088;11.886;2022-07-29T15:55:47;0.88;;;0.88;;
27424;SDS011;15244;49.088;11.886;2022-07-29T16:00:49;0.82;;;0.82;;
27424;SDS011;15244;49.088;11.886;2022-07-29T16:05:50;1.30;;;0.98;;
27424;SDS011;15244;49.088;11.886;2022-07-29T16:10:52;1.08;;;1.08;;
27424;SDS011;15244;49.088;11.886;2022-07-29T16:15:55;1.27;;;1.10;;
27424;SDS011;15244;49.088;11.886;2022-07-29T16:21:03;1.83;;;0.80;;
27424;SDS011;15244;49.088;11.886;2022-07-29T16:26:05;0.93;;;0.93;;
27424;SDS011;15244;49.088;11.886;2022-07-29T16:31:07;1.23;;;1.23;;
27424;SDS011;15244;49.088;11.886;2022-07-29T16:36:09;1.00;;;1.00;;
27424;SDS011;15244;49.088;11.886;2022-07-29T16:41:13;0.63;;;0.63;;
27424;SDS011;15244;49.088;11.886;2022-07-29T16:46:15;0.93;;;0.93;;
27424;SDS011;15244;49.088;11.886;2022-07-29T16:51:19;1.05;;;1.00;;
27424;SDS011;15244;49.088;11.886;2022-07-29T16:56:28;0.77;;;0.77;;
27424;SDS011;15244;49.088;11.886;2022-07-29T17:01:38;0.90;;;0.90;;
27424;SDS011;15244;49.088;11.886;2022-07-29T17:06:40;1.15;;;1.08;;
27424;SDS011;15244;49.088;11.886;2022-07-29T17:11:42;1.27;;;1.17;;
27424;SDS011;15244;49.088;11.886;2022-07-29T17:16:55;1.40;;;1.30;;
27424;SDS011;15244;49.088;11.886;2022-07-29T17:22:02;4.03;;;1.67;;
27424;SDS011;15244;49.088;11.886;2022-07-29T17:27:14;1.70;;;1.60;;
27424;SDS011;15244;49.088;11.886;2022-07-29T17:32:23;1.25;;;1.20;;
27424;SDS011;15244;49.088;11.886;2022-07-29T17:37:25;2.05;;;1.80;;
27424;SDS011;15244;49.088;11.886;2022-07-29T17:42:29;1.70;;;1.60;;
27424;SDS011;15244;49.088;11.886;2022-07-29T17:47:33;1.50;;;1.50;;
27424;SDS011;15244;49.088;11.886;2022-07-29T17:52:41;1.80;;;1.70;;
27424;SDS011;15244;49.088;11.886;2022-07-29T17:57:42;1.60;;;1.50;;
27424;SDS011;15244;49.088;11.886;2022-07-29T18:02:44;2.95;;;1.67;;
27424;SDS011;15244;49.088;11.886;2022-07-29T18:07:46;1.67;;;1.58;;
27424;SDS011;15244;49.088;11.886;2022-07-29T18:12:48;2.83;;;2.10;;
27424;SDS011;15244;49.088;11.886;2022-07-29T18:17:49;4.10;;;2.05;;
27424;SDS011;15244;49.088;11.886;2022-07-29T18:22:58;2.65;;;2.42;;
27424;SDS011;15244;49.088;11.886;2022-07-29T18:28:02;2.50;;;2.30;;
27424;SDS011;15244;49.088;11.886;2022-07-29T18:33:09;2.53;;;2.33;;
27424;SDS011;15244;49.088;11.886;2022-07-29T18:38:22;2.50;;;2.30;;
27424;SDS011;15244;49.088;11.886;2022-07-29T18:43:41;2.10;;;2.00;;
27424;SDS011;15244;49.088;11.886;2022-07-29T18:48:43;2.38;;;2.28;;
27424;SDS011;15244;49.088;11.886;2022-07-29T18:53:58;2.40;;;2.20;;
27424;SDS011;15244;49.088;11.886;2022-07-29T18:59:01;2.30;;;2.20;;
27424;SDS011;15244;49.088;11.886;2022-07-29T19:04:05;2.15;;;1.98;;
27424;SDS011;15244;49.088;11.886;2022-07-29T19:09:09;1.73;;;1.63;;
27424;SDS011;15244;49.088;11.886;2022-07-29T19:14:15;2.13;;;2.03;;
27424;SDS011;15244;49.088;11.886;2022-07-29T19:19:22;1.98;;;1.75;;
27424;SDS011;15244;49.088;11.886;2022-07-29T19:24:24;1.85;;;1.75;;
27424;SDS011;15244;49.088;11.886;2022-07-29T19:29:25;1.98;;;1.63;;
27424;SDS011;15244;49.088;11.886;2022-07-29T19:34:27;1.70;;;1.60;;
27424;SDS011;15244;49.088;11.886;2022-07-29T19:39:31;1.83;;;1.73;;
27424;SDS011;15244;49.088;11.886;2022-07-29T19:44:53;1.67;;;1.58;;
27424;SDS011;15244;49.088;11.886;2022-07-29T19:49:54;1.73;;;1.63;;
27424;SDS011;15244;49.088;11.886;2022-07-29T19:54:58;1.70;;;1.60;;
27424;SDS011;15244;49.088;11.886;2022-07-29T20:00:08;1.75;;;1.65;;
27424;SDS011;15244;49.088;11.886;2022-07-29T20:05:11;1.60;;;1.50;;
27424;SDS011;15244;49.088;11.886;2022-07-29T20:10:18;1.90;;;1.80;;
27424;SDS011;15244;49.088;11.886;2022-07-29T20:15:23;2.10;;;1.98;;
27424;SDS011;15244;49.088;11.886;2022-07-29T20:20:27;1.88;;;1.77;;
27424;SDS011;15244;49.088;11.886;2022-07-29T20:25:30;1.48;;;1.48;;
27424;SDS011;15244;49.088;11.886;2022-07-29T20:30:34;2.05;;;1.20;;
27424;SDS011;15244;49.088;11.886;2022-07-29T20:35:39;1.70;;;1.60;;
27424;SDS011;15244;49.088;11.886;2022-07-29T20:40:41;1.65;;;1.55;;
27424;SDS011;15244;49.088;11.886;2022-07-29T20:45:45;1.92;;;1.52;;
27424;SDS011;15244;49.088;11.886;2022-07-29T20:50:47;1.42;;;1.42;;
27424;SDS011;15244;49.088;11.886;2022-07-29T20:55:50;1.55;;;1.45;;
27424;SDS011;15244;49.088;11.886;2022-07-29T21:00:51;1.55;;;1.45;;
27424;SDS011;15244;49.088;11.886;2022-07-29T21:05:55;1.70;;;1.60;;
27424;SDS011;15244;49.088;11.886;2022-07-29T21:10:57;1.50;;;1.40;;
27424;SDS011;15244;49.088;11.886;2022-07-29T21:16:01;1.83;;;1.73;;
27424;SDS011;15244;49.088;11.886;2022-07-29T21:21:15;2.22;;;2.03;;
27424;SDS011;15244;49.088;11.886;2022-07-29T21:26:22;1.60;;;1.50;;
27424;SDS011;15244;49.088;11.886;2022-07-29T21:31:24;2.08;;;1.98;;
27424;SDS011;15244;49.088;11.886;2022-07-29T21:36:32;3.88;;;2.20;;
27424;SDS011;15244;49.088;11.886;2022-07-29T21:42:02;2.10;;;2.00;;
27424;SDS011;15244;49.088;11.886;2022-07-29T21:47:10;1.60;;;1.50;;
27424;SDS011;15244;49.088;11.886;2022-07-29T21:52:17;1.48;;;1.40;;
27424;SDS011;15244;49.088;11.886;2022-07-29T21:57:21;2.03;;;1.83;;
27424;SDS011;15244;49.088;11.886;2022-07-29T22:02:29;2.58;;;1.65;;
27424;SDS011;15244;49.088;11.886;2022-07-29T22:07:30;1.50;;;1.50;;
27424;SDS011;15244;49.088;11.886;2022-07-29T22:12:53;1.80;;;1.70;;
27424;SDS011;15244;49.088;11.886;2022-07-29T22:17:59;1.77;;;1.67;;
27424;SDS011;15244;49.088;11.886;2022-07-29T22:23:01;2.40;;;2.30;;
27424;SDS011;15244;49.088;11.886;2022-07-29T22:28:05;2.60;;;2.15;;
27424;SDS011;15244;49.088;11.886;2022-07-29T22:33:06;2.10;;;2.00;;
27424;SDS011;15244;49.088;11.886;2022-07-29T22:38:08;2.13;;;2.00;;
27424;SDS011;15244;49.088;11.886;2022-07-29T22:43:13;2.20;;;2.10;;
27424;SDS011;15244;49.088;11.886;2022-07-29T22:48:17;2.38;;;2.28;;
27424;SDS011;15244;49.088;11.886;2022-07-29T22:53:20;2.20;;;2.10;;
27424;SDS011;15244;49.088;11.886;2022-07-29T22:58:22;2.25;;;2.00;;
27424;SDS011;15244;49.088;11.886;2022-07-29T23:03:26;2.35;;;2.25;;
27424;SDS011;15244;49.088;11.886;2022-07-29T23:08:31;2.80;;;2.60;;
27424;SDS011;15244;49.088;11.886;2022-07-29T23:13:36;4.07;;;2.42;;
27424;SDS011;15244;49.088;11.886;2022-07-29T23:18:42;2.47;;;2.28;;
27424;SDS011;15244;49.088;11.886;2022-07-29T23:23:57;2.75;;;2.55;;
27424;SDS011;15244;49.088;11.886;2022-07-29T23:28:58;3.03;;;2.85;;
27424;SDS011;15244;49.088;11.886;2022-07-29T23:34:00;2.85;;;2.65;;
27424;SDS011;15244;49.088;11.886;2022-07-29T23:39:02;2.85;;;2.65;;
27424;SDS011;15244;49.088;11.886;2022-07-29T23:44:04;2.88;;;2.67;;
27424;SDS011;15244;49.088;11.886;2022-07-29T23:49:10;3.03;;;2.83;;
27424;SDS011;15244;49.088;11.886;2022-07-29T23:54:14;3.20;;;3.00;;
27424;SDS011;15244;49.088;11.886;2022-07-29T23:59:20;2.97;;;2.78;;
